Hauptseite
METAR-TAF:

METAR-TAF

Flughäfen :

Flughafen Berlin-Tegel

Berlin, Deutschland

Breite: 52-34N, Länge: 013-19E, Höhe: 37 m

Beobachtung

Neuester Wetterbericht von vor 35 Minuten, um 21:50 UTC
Wind 13 kt aus West
Temperatur 4°C
Luftfeuchtigkeit 81%
Luftdruck 1017 hPa
Sichtweite 10 km oder mehr
Leicht bewölkt in der Höhe von 3600 ft

METAR: EDDT 182150Z 26013KT 9999 FEW036 04/01 Q1017 NOSIG

Zeit: 23:25 (22:25 UTC)

Prognose

Neuester Wetterbericht von vor 5 Stunden und 25 Minuten, um 17:00 UTC
Gültige Prognose vom 18 um 18 UTC bis 19 um 18 UTC
Wind 15 kt aus West, Böen bis zu 25 kt
Sichtweite 10 km oder mehr
Aufgelockert bewölkt in der Höhe von 4000 ft
Übergehend zu
vom 18 um 18 UTC bis 18 um 20 UTC
Wind 8 kt aus West
Übergehend zu
vom 19 um 15 UTC bis 19 um 17 UTC
Wind 3 kt aus West/Nordwest

TAF: EDDT 181700Z 1818/1918 26015G25KT 9999 SCT040 BECMG 1818/1820 27008KT BECMG 1915/1917 29003KT

Wetterbeobachtungen und Prognosen von mehr als 4000 Flughäfen (METAR und TAF Bericht).

Die verfügbaren Stationen werden durch gelbe und rote Markierungen auf der Karte dargestellt.

Führen Sie die Maus auf sie, um den Namen der Station zu sehen.

Darauf klicken, um die Beobachtung von Wetterbeobachtungen und Prognosen zu sehen.

Um die Karte zu ändern : klicken Sie auf den grünen Tasten mit einem schwarzen Kreuz Zum Vergrößern, auf den grünen Button mit einem Gedankenstrich zu verkleinern, oder auf die grünen Pfeile für benachbarte Karten.


METAR-TAF: